Viking Amber — 9V7985 — position and weather

sailwx.info

Track history (hours):
 
Tides and Currents Weather Stations Pressure Air Temp Water Temp Dewpoint Dewpoint Depression Visibility Wind Speed Wind Dir Waves Ship Positions

Viking Amber

Last reported at 2014-Nov-01 00:12 UTC. Time now 2014-Nov-01 07:01 UTC.
Position N 50°30' W 000°04'.

Length 167 m; draft 7.9 m.

Type: Other ship. MMSI: 563255000.

Date/timePositionNaut miles runAvg speedWind from/ knotsBaromVisibWave heightAir tempDewpointWater temp
2014-Nov-01 00:12N 50°30' W 000°04'1015.1
2014-Oct-31 23:31N 50°33' E 000°12'1515.8
2014-Oct-31 22:33N 50°37' E 000°35'1615.9
2014-Oct-31 21:33N 50°46' E 000°55'1515.5
2014-Oct-31 20:33N 50°56' E 001°14'1514.5
2014-Oct-31 19:33N 51°06' E 001°31'1413.6
2014-Oct-31 18:33N 51°15' E 001°47'1413.9
2014-Oct-31 17:33N 51°27' E 001°58'1514.9
2014-Oct-31 16:33N 51°39' E 002°14'1615.7
2014-Oct-31 15:33N 51°50' E 002°30'1716.6
2014-Oct-31 14:34N 52°03' E 002°48'1716.8
2014-Oct-31 13:33N 52°16' E 003°04'1616.3
2014-Oct-31 12:33N 52°29' E 003°21'1515.3
2014-Oct-31 11:33N 52°41' E 003°37'1414.4
2014-Oct-31 10:33N 52°52' E 003°52'1413.8
2014-Oct-31 09:33N 53°02' E 004°08'1313.5
2014-Oct-31 08:33N 53°11' E 004°24'1413.7
2014-Oct-31 07:33N 53°24' E 004°34'1413.9
2014-Oct-31 06:33N 53°32' E 004°52'1515.5
2014-Oct-31 05:33N 53°38' E 005°17'1515.5
2014-Oct-31 04:33N 53°42' E 005°42'1515.1
2014-Oct-31 03:33N 53°47' E 006°06'1313.0
2014-Oct-31 02:33N 53°37' E 006°21'1212.5
2014-Oct-31 01:33N 53°33' E 006°41'1212.5
2014-Oct-31 00:34N 53°25' E 006°57'7 7.3
2014-Oct-30 23:34N 53°20' E 007°06'2 2.3
2014-Oct-30 22:33N 53°20' E 007°10'0 0.0
2014-Oct-30 21:33N 53°20' E 007°10'0 0.0
2014-Oct-30 20:33N 53°20' E 007°10'0 0.0
2014-Oct-30 19:33N 53°20' E 007°10'0 0.0
2014-Oct-30 18:33N 53°20' E 007°10'0 0.0
2014-Oct-30 17:33N 53°20' E 007°10'0 0.0
2014-Oct-30 16:33N 53°20' E 007°10'0 0.0
2014-Oct-30 15:33N 53°20' E 007°10'0 0.0
2014-Oct-30 14:33N 53°20' E 007°10'0 0.0
2014-Oct-30 13:33N 53°20' E 007°10'0 0.0
2014-Oct-30 12:33N 53°20' E 007°10'0 0.0
2014-Oct-30 11:33N 53°20' E 007°10'0 0.0
2014-Oct-30 10:33N 53°20' E 007°10'0 0.0
2014-Oct-30 09:33N 53°20' E 007°10'0 0.0
2014-Oct-30 08:33N 53°20' E 007°10'0 0.0
2014-Oct-30 07:33N 53°20' E 007°10'0 0.0
2014-Oct-30 06:33N 53°20' E 007°10'0 0.0
2014-Oct-30 05:33N 53°20' E 007°10'0 0.0
2014-Oct-30 04:33N 53°20' E 007°10'1 1.5
2014-Oct-30 03:34N 53°20' E 007°07'1110.6
2014-Oct-30 02:34N 53°27' E 006°54'1414.4
2014-Oct-30 01:34N 53°36' E 006°35'1211.7
2014-Oct-30 00:33N 53°39' E 006°16'5 4.5
2014-Oct-29 23:33N 53°40' E 006°08'6 5.8
2014-Oct-29 22:33N 53°40' E 005°59'1211.9
2014-Oct-29 21:33N 53°36' E 005°40'1313.1
2014-Oct-29 20:33N 53°32' E 005°19'1515.0
2014-Oct-29 19:33N 53°27' E 004°54'1714.4
2014-Oct-29 18:22N 53°15' E 004°35'1214.7
2014-Oct-29 17:33N 53°04' E 004°25'1414.1
2014-Oct-29 16:33N 52°52' E 004°14'1413.6
2014-Oct-29 15:33N 52°42' E 003°60'1313.3
2014-Oct-29 14:33N 52°32' E 003°44'4312.6
2014-Oct-29 11:06N 51°51' E 003°21'712.3
2014-Oct-29 10:33N 51°45' E 003°15'1312.5
2014-Oct-29 09:32N 51°34' E 003°25'1111.4
2014-Oct-29 08:34N 51°26' E 003°38'6 5.6
2014-Oct-29 07:33N 51°24' E 003°46'0 0.1
2014-Oct-29 06:32N 51°24' E 003°46'0 0.0
2014-Oct-29 05:33N 51°24' E 003°46'0 0.1
2014-Oct-29 04:32N 51°24' E 003°46'0 0.0
2014-Oct-29 03:33N 51°24' E 003°46'0 0.1
2014-Oct-29 02:33N 51°24' E 003°46'0 0.1
2014-Oct-29 01:32N 51°24' E 003°46'0 0.0
2014-Oct-29 00:33N 51°24' E 003°46'0 0.0
2014-Oct-28 23:32N 51°24' E 003°46'0 0.0
2014-Oct-28 22:32N 51°24' E 003°46'0 0.1
2014-Oct-28 21:32N 51°24' E 003°46'0 0.0
2014-Oct-28 20:32N 51°24' E 003°46'0 0.0
2014-Oct-28 19:32N 51°24' E 003°46'0 0.0
2014-Oct-28 18:32N 51°24' E 003°46'0 0.1
2014-Oct-28 17:32N 51°24' E 003°46'0 0.1
2014-Oct-28 16:32N 51°24' E 003°46'0 0.1
2014-Oct-28 15:32N 51°24' E 003°46'0 0.0
2014-Oct-28 14:32N 51°24' E 003°46'0 0.1
2014-Oct-28 13:32N 51°24' E 003°46'8 7.8
2014-Oct-28 12:33N 51°26' E 003°34'1413.7
2014-Oct-28 11:33N 51°24' E 003°12'1313.4
2014-Oct-28 10:33N 51°25' E 002°51'5 4.7
2014-Oct-28 09:32N 51°26' E 002°43'2 2.2
2014-Oct-28 08:31N 51°29' E 002°42'8 7.9
2014-Oct-28 07:32N 51°23' E 002°33'8 8.5
2014-Oct-28 06:32N 51°19' E 002°21'1010.1
2014-Oct-28 05:34N 51°15' E 002°07'1110.7
2014-Oct-28 04:34N 51°09' E 001°53'1312.7
2014-Oct-28 03:34N 51°01' E 001°38'1615.9
2014-Oct-28 02:34N 50°47' E 001°26'1615.9
2014-Oct-28 01:34N 50°35' E 001°09'3115.4
2014-Oct-27 23:33N 50°24' E 000°24'3716.8
2014-Oct-27 21:22N 50°14' W 000°32'1516.6
2014-Oct-27 20:27N 50°10' W 000°55'4114.1
2014-Oct-27 17:31N 49°60' W 001°57'1111.4
2014-Oct-27 16:32N 49°57' W 002°14'1211.2
2014-Oct-27 15:30N 49°54' W 002°31'1511.8
2014-Oct-27 14:11N 49°50' W 002°55'912.7
2014-Oct-27 13:29N 49°47' W 003°08'1313.0
2014-Oct-27 12:27N 49°44' W 003°28'  
Track history (hours):
 
Tides and Currents Weather Stations Pressure Air Temp Water Temp Dewpoint Dewpoint Depression Visibility Wind Speed Wind Dir Waves Ship Positions

Viking Amber

Last reported at 2014-Nov-01 00:12 UTC. Time now 2014-Nov-01 07:01 UTC.
Position N 50°30' W 000°04'.

Length 167 m; draft 7.9 m.

Type: Other ship. MMSI: 563255000.

Date/timePositionNaut miles runAvg speedWind from/ knotsBaromVisibWave heightAir tempDewpointWater temp
2014-Nov-01 00:12N 50°30' W 000°04'1015.1
2014-Oct-31 23:31N 50°33' E 000°12'1515.8
2014-Oct-31 22:33N 50°37' E 000°35'1615.9
2014-Oct-31 21:33N 50°46' E 000°55'1515.5
2014-Oct-31 20:33N 50°56' E 001°14'1514.5
2014-Oct-31 19:33N 51°06' E 001°31'1413.6
2014-Oct-31 18:33N 51°15' E 001°47'1413.9
2014-Oct-31 17:33N 51°27' E 001°58'1514.9
2014-Oct-31 16:33N 51°39' E 002°14'1615.7
2014-Oct-31 15:33N 51°50' E 002°30'1716.6
2014-Oct-31 14:34N 52°03' E 002°48'1716.8
2014-Oct-31 13:33N 52°16' E 003°04'1616.3
2014-Oct-31 12:33N 52°29' E 003°21'1515.3
2014-Oct-31 11:33N 52°41' E 003°37'1414.4
2014-Oct-31 10:33N 52°52' E 003°52'1413.8
2014-Oct-31 09:33N 53°02' E 004°08'1313.5
2014-Oct-31 08:33N 53°11' E 004°24'1413.7
2014-Oct-31 07:33N 53°24' E 004°34'1413.9
2014-Oct-31 06:33N 53°32' E 004°52'1515.5
2014-Oct-31 05:33N 53°38' E 005°17'1515.5
2014-Oct-31 04:33N 53°42' E 005°42'1515.1
2014-Oct-31 03:33N 53°47' E 006°06'1313.0
2014-Oct-31 02:33N 53°37' E 006°21'1212.5
2014-Oct-31 01:33N 53°33' E 006°41'1212.5
2014-Oct-31 00:34N 53°25' E 006°57'7 7.3
2014-Oct-30 23:34N 53°20' E 007°06'2 2.3
2014-Oct-30 22:33N 53°20' E 007°10'0 0.0
2014-Oct-30 21:33N 53°20' E 007°10'0 0.0
2014-Oct-30 20:33N 53°20' E 007°10'0 0.0
2014-Oct-30 19:33N 53°20' E 007°10'0 0.0
2014-Oct-30 18:33N 53°20' E 007°10'0 0.0
2014-Oct-30 17:33N 53°20' E 007°10'0 0.0
2014-Oct-30 16:33N 53°20' E 007°10'0 0.0
2014-Oct-30 15:33N 53°20' E 007°10'0 0.0
2014-Oct-30 14:33N 53°20' E 007°10'0 0.0
2014-Oct-30 13:33N 53°20' E 007°10'0 0.0
2014-Oct-30 12:33N 53°20' E 007°10'0 0.0
2014-Oct-30 11:33N 53°20' E 007°10'0 0.0
2014-Oct-30 10:33N 53°20' E 007°10'0 0.0
2014-Oct-30 09:33N 53°20' E 007°10'0 0.0
2014-Oct-30 08:33N 53°20' E 007°10'0 0.0
2014-Oct-30 07:33N 53°20' E 007°10'0 0.0
2014-Oct-30 06:33N 53°20' E 007°10'0 0.0
2014-Oct-30 05:33N 53°20' E 007°10'0 0.0
2014-Oct-30 04:33N 53°20' E 007°10'1 1.5
2014-Oct-30 03:34N 53°20' E 007°07'1110.6
2014-Oct-30 02:34N 53°27' E 006°54'1414.4
2014-Oct-30 01:34N 53°36' E 006°35'1211.7
2014-Oct-30 00:33N 53°39' E 006°16'5 4.5
2014-Oct-29 23:33N 53°40' E 006°08'6 5.8
2014-Oct-29 22:33N 53°40' E 005°59'1211.9
2014-Oct-29 21:33N 53°36' E 005°40'1313.1
2014-Oct-29 20:33N 53°32' E 005°19'1515.0
2014-Oct-29 19:33N 53°27' E 004°54'1714.4
2014-Oct-29 18:22N 53°15' E 004°35'1214.7
2014-Oct-29 17:33N 53°04' E 004°25'1414.1
2014-Oct-29 16:33N 52°52' E 004°14'1413.6
2014-Oct-29 15:33N 52°42' E 003°60'1313.3
2014-Oct-29 14:33N 52°32' E 003°44'4312.6
2014-Oct-29 11:06N 51°51' E 003°21'712.3
2014-Oct-29 10:33N 51°45' E 003°15'1312.5
2014-Oct-29 09:32N 51°34' E 003°25'1111.4
2014-Oct-29 08:34N 51°26' E 003°38'6 5.6
2014-Oct-29 07:33N 51°24' E 003°46'0 0.1
2014-Oct-29 06:32N 51°24' E 003°46'0 0.0
2014-Oct-29 05:33N 51°24' E 003°46'0 0.1
2014-Oct-29 04:32N 51°24' E 003°46'0 0.0
2014-Oct-29 03:33N 51°24' E 003°46'0 0.1
2014-Oct-29 02:33N 51°24' E 003°46'0 0.1
2014-Oct-29 01:32N 51°24' E 003°46'0 0.0
2014-Oct-29 00:33N 51°24' E 003°46'0 0.0
2014-Oct-28 23:32N 51°24' E 003°46'0 0.0
2014-Oct-28 22:32N 51°24' E 003°46'0 0.1
2014-Oct-28 21:32N 51°24' E 003°46'0 0.0
2014-Oct-28 20:32N 51°24' E 003°46'0 0.0
2014-Oct-28 19:32N 51°24' E 003°46'0 0.0
2014-Oct-28 18:32N 51°24' E 003°46'0 0.1
2014-Oct-28 17:32N 51°24' E 003°46'0 0.1
2014-Oct-28 16:32N 51°24' E 003°46'0 0.1
2014-Oct-28 15:32N 51°24' E 003°46'0 0.0
2014-Oct-28 14:32N 51°24' E 003°46'0 0.1
2014-Oct-28 13:32N 51°24' E 003°46'8 7.8
2014-Oct-28 12:33N 51°26' E 003°34'1413.7
2014-Oct-28 11:33N 51°24' E 003°12'1313.4
2014-Oct-28 10:33N 51°25' E 002°51'5 4.7
2014-Oct-28 09:32N 51°26' E 002°43'2 2.2
2014-Oct-28 08:31N 51°29' E 002°42'8 7.9
2014-Oct-28 07:32N 51°23' E 002°33'8 8.5
2014-Oct-28 06:32N 51°19' E 002°21'1010.1
2014-Oct-28 05:34N 51°15' E 002°07'1110.7
2014-Oct-28 04:34N 51°09' E 001°53'1312.7
2014-Oct-28 03:34N 51°01' E 001°38'1615.9
2014-Oct-28 02:34N 50°47' E 001°26'1615.9
2014-Oct-28 01:34N 50°35' E 001°09'3115.4
2014-Oct-27 23:33N 50°24' E 000°24'3716.8
2014-Oct-27 21:22N 50°14' W 000°32'1516.6
2014-Oct-27 20:27N 50°10' W 000°55'4114.1
2014-Oct-27 17:31N 49°60' W 001°57'1111.4
2014-Oct-27 16:32N 49°57' W 002°14'1211.2
2014-Oct-27 15:30N 49°54' W 002°31'1511.8
2014-Oct-27 14:11N 49°50' W 002°55'912.7
2014-Oct-27 13:29N 49°47' W 003°08'1313.0
2014-Oct-27 12:27N 49°44' W 003°28'  

Dump ship's entire track history